Time;durP1;ratioP1;P1;durP2;ratioP2;P2;SDS_P1;SDS_P2;PMS_P1;PMS_P2;Temp;Humidity;BMP_temperature;BMP_pressure;BME280_temperature;BME280_humidity;BME280_pressure;Samples;Min_cycle;Max_cycle;Signal;HPM_P1;HPM_P2
2022/12/21 00:00:12;;;;;;;1.63;0.70;;;18.40;64.50;;;;;;7405993;19;19919;-66
2022/12/21 00:02:43;;;;;;;2.03;0.90;;;18.40;64.60;;;;;;7406104;19;19952;-65
2022/12/21 00:05:13;;;;;;;2.13;1.20;;;18.40;64.60;;;;;;7405757;19;19918;-65
2022/12/21 00:07:42;;;;;;;2.17;1.00;;;18.30;65.10;;;;;;7405817;19;19922;-65
2022/12/21 00:10:12;;;;;;;0.93;0.15;;;18.30;64.60;;;;;;7405277;19;19974;-65
2022/12/21 00:12:41;;;;;;;1.60;1.00;;;18.30;64.60;;;;;;7404544;19;19950;-66
2022/12/21 00:15:11;;;;;;;1.85;1.02;;;18.30;64.60;;;;;;7404377;19;19922;-65
2022/12/21 00:17:46;;;;;;;2.40;1.05;;;18.30;64.60;;;;;;7404346;19;19944;-66
2022/12/21 00:20:15;;;;;;;2.17;0.95;;;18.30;64.60;;;;;;7406924;19;19918;-66
2022/12/21 00:22:44;;;;;;;1.60;0.95;;;18.30;64.60;;;;;;7404302;19;20361;-66
2022/12/21 00:25:13;;;;;;;2.08;0.82;;;18.30;64.60;;;;;;7403466;19;20420;-66
2022/12/21 00:27:42;;;;;;;2.00;0.90;;;18.30;64.60;;;;;;7406522;19;19914;-65
2022/12/21 00:30:12;;;;;;;1.77;0.85;;;18.30;64.60;;;;;;7405956;19;19915;-66
2022/12/21 00:32:41;;;;;;;2.28;0.90;;;18.30;64.60;;;;;;7402417;19;19922;-65
2022/12/21 00:35:13;;;;;;;2.30;0.93;;;18.30;64.70;;;;;;7403632;19;19930;-64
2022/12/21 00:37:42;;;;;;;2.38;0.93;;;18.20;64.60;;;;;;7406418;19;19925;-65
2022/12/21 00:40:12;;;;;;;1.73;1.00;;;18.20;64.60;;;;;;7403185;19;19940;-65
2022/12/21 00:42:42;;;;;;;1.75;0.93;;;18.20;65.20;;;;;;7405384;19;19918;-66
2022/12/21 00:45:12;;;;;;;1.92;0.95;;;18.20;64.70;;;;;;7406219;19;19918;-65
2022/12/21 00:47:41;;;;;;;2.20;0.47;;;18.20;64.70;;;;;;7403776;19;20273;-65
2022/12/21 00:50:14;;;;;;;1.73;1.00;;;18.20;64.70;;;;;;7407585;19;19918;-65
2022/12/21 00:52:44;;;;;;;1.75;0.25;;;18.20;64.70;;;;;;7402397;19;19925;-65
2022/12/21 00:55:13;;;;;;;3.25;0.43;;;18.20;64.70;;;;;;7407730;19;19941;-65
2022/12/21 00:57:42;;;;;;;2.88;1.05;;;18.20;64.70;;;;;;7402846;19;19937;-65
2022/12/21 01:00:13;;;;;;;1.90;0.77;;;18.20;64.70;;;;;;7403694;19;19906;-65
2022/12/21 01:02:42;;;;;;;2.00;1.10;;;18.20;64.70;;;;;;7402127;19;19978;-65
2022/12/21 01:05:14;;;;;;;1.60;0.80;;;18.20;64.70;;;;;;7402527;19;19966;-66
2022/12/21 01:07:42;;;;;;;2.67;1.23;;;18.20;64.70;;;;;;7402506;19;19919;-65
2022/12/21 01:10:26;;;;;;;2.67;1.02;;;18.10;64.70;;;;;;7403693;19;19918;-65
2022/12/21 01:12:57;;;;;;;2.63;0.93;;;18.10;64.70;;;;;;7401410;19;19918;-65
2022/12/21 01:15:26;;;;;;;2.15;1.00;;;18.10;64.70;;;;;;7402483;19;20469;-65
2022/12/21 01:17:55;;;;;;;1.52;0.77;;;18.10;64.70;;;;;;7403173;19;19923;-65
2022/12/21 01:20:27;;;;;;;1.77;0.95;;;18.10;64.70;;;;;;7402592;19;19914;-65
2022/12/21 01:22:55;;;;;;;1.52;0.40;;;18.10;64.70;;;;;;7402224;19;20266;-65
2022/12/21 01:25:25;;;;;;;2.15;1.05;;;18.10;64.70;;;;;;7402025;19;19914;-65
2022/12/21 01:27:53;;;;;;;2.42;0.85;;;18.10;64.70;;;;;;7403819;19;19910;-65
2022/12/21 01:30:22;;;;;;;1.73;0.32;;;18.10;64.70;;;;;;7401713;19;20010;-66
2022/12/21 01:32:51;;;;;;;2.65;1.17;;;18.10;64.70;;;;;;7400874;19;19923;-65
2022/12/21 01:35:21;;;;;;;2.08;0.40;;;18.10;64.70;;;;;;7402785;19;20275;-65
2022/12/21 01:37:52;;;;;;;2.05;1.15;;;18.10;64.70;;;;;;7404655;19;19978;-65
2022/12/21 01:40:21;;;;;;;1.67;0.95;;;18.10;64.70;;;;;;7404408;19;19970;-65
2022/12/21 01:42:51;;;;;;;2.03;1.00;;;18.10;64.60;;;;;;7402329;19;19930;-67
2022/12/21 01:45:25;;;;;;;1.60;1.02;;;18.10;64.70;;;;;;7403735;19;19963;-65
2022/12/21 01:47:57;;;;;;;1.85;0.50;;;18.10;64.60;;;;;;7405079;19;20298;-65
2022/12/21 01:50:44;;;;;;;1.38;0.30;;;18.00;64.60;;;;;;7403551;19;19926;-66
2022/12/21 01:53:19;;;;;;;1.40;0.47;;;18.10;64.70;;;;;;7402486;19;19983;-66
2022/12/21 01:55:52;;;;;;;1.42;0.40;;;18.10;64.70;;;;;;7403622;19;19922;-66
2022/12/21 01:58:22;;;;;;;2.25;0.90;;;18.00;64.60;;;;;;7403870;19;19919;-65
2022/12/21 02:00:51;;;;;;;1.83;1.00;;;18.10;64.70;;;;;;7405382;19;19939;-65
2022/12/21 02:03:24;;;;;;;2.25;1.05;;;18.10;64.70;;;;;;7405460;19;19937;-65
2022/12/21 02:05:57;;;;;;;1.20;0.22;;;18.00;64.70;;;;;;7401293;19;19915;-66
2022/12/21 02:08:30;;;;;;;2.25;1.27;;;18.00;64.70;;;;;;7400685;19;19941;-65
2022/12/21 02:11:00;;;;;;;1.85;0.98;;;18.00;64.70;;;;;;7398556;19;19946;-64
2022/12/21 02:13:29;;;;;;;1.85;0.98;;;18.00;64.70;;;;;;7399120;19;19925;-65
2022/12/21 02:16:18;;;;;;;1.63;0.93;;;18.00;65.30;;;;;;7402414;19;19926;-66
2022/12/21 02:19:20;;;;;;;1.65;0.93;;;18.00;64.70;;;;;;7401975;19;20370;-65
2022/12/21 02:21:55;;;;;;;1.48;0.88;;;18.00;64.80;;;;;;7400666;19;19967;-65
2022/12/21 02:24:49;;;;;;;1.90;1.25;;;18.00;64.70;;;;;;7408769;19;19918;-65
2022/12/21 02:27:59;;;;;;;3.20;1.05;;;17.90;64.60;;;;;;7406985;19;19921;-65
2022/12/21 02:30:54;;;;;;;1.45;0.40;;;17.90;64.60;;;;;;7406827;19;19922;-65
2022/12/21 02:33:33;;;;;;;1.67;1.13;;;17.90;64.60;;;;;;7406292;19;20391;-65
2022/12/21 02:36:15;;;;;;;2.35;1.13;;;17.90;64.70;;;;;;7409149;19;19925;-66
2022/12/21 02:38:54;;;;;;;1.50;0.77;;;17.90;64.60;;;;;;7407882;19;19914;-65
2022/12/21 02:41:35;;;;;;;1.35;0.30;;;17.90;64.60;;;;;;7407165;19;19918;-65
2022/12/21 02:44:12;;;;;;;;;;;17.90;64.60;;;;;;7408790;19;19928;-65
2022/12/21 02:46:51;;;;;;;2.55;0.50;;;17.90;64.60;;;;;;7406647;19;19940;-66
2022/12/21 02:49:26;;;;;;;2.40;1.25;;;17.90;64.70;;;;;;7405902;19;19929;-66
2022/12/21 02:52:02;;;;;;;1.30;0.30;;;17.90;64.70;;;;;;7410707;19;19929;-65
2022/12/21 02:54:43;;;;;;;1.52;0.82;;;17.90;64.60;;;;;;7405868;19;20546;-65
2022/12/21 02:57:13;;;;;;;2.03;1.15;;;17.90;64.70;;;;;;7406272;19;20326;-65
2022/12/21 02:59:46;;;;;;;2.15;1.08;;;17.90;64.60;;;;;;7406171;19;20010;-65
2022/12/21 03:02:47;;;;;;;1.50;0.90;;;17.90;64.60;;;;;;7406084;19;19926;-65
2022/12/21 03:05:36;;;;;;;1.50;1.13;;;17.90;64.70;;;;;;7406471;19;19922;-65
2022/12/21 03:08:18;;;;;;;1.30;0.30;;;17.90;64.60;;;;;;7409815;19;19974;-65
2022/12/21 03:10:57;;;;;;;1.70;0.82;;;17.90;64.60;;;;;;7407562;19;19914;-65
2022/12/21 03:13:35;;;;;;;1.98;0.57;;;17.90;64.60;;;;;;7405376;19;19925;-65
2022/12/21 03:16:14;;;;;;;2.00;1.15;;;17.90;64.60;;;;;;7405725;19;20002;-65
2022/12/21 03:18:57;;;;;;;2.67;1.00;;;17.90;64.60;;;;;;7406044;19;19918;-65
2022/12/21 03:21:33;;;;;;;1.42;0.22;;;17.80;64.50;;;;;;7406079;19;20268;-65
2022/12/21 03:24:10;;;;;;;2.40;1.42;;;17.90;64.60;;;;;;7405315;19;19937;-66
2022/12/21 03:26:45;;;;;;;2.10;1.00;;;17.80;64.50;;;;;;7407184;19;19929;-65
2022/12/21 03:29:19;;;;;;;1.67;1.00;;;17.80;64.50;;;;;;7405599;19;19918;-66
2022/12/21 03:31:54;;;;;;;2.10;1.10;;;17.80;64.60;;;;;;7405584;19;20354;-65
2022/12/21 03:34:30;;;;;;;1.50;1.05;;;17.80;64.50;;;;;;7403089;19;19915;-65
2022/12/21 03:37:04;;;;;;;1.23;0.30;;;17.80;64.50;;;;;;7405609;19;19945;-65
2022/12/21 03:39:34;;;;;;;1.60;0.30;;;17.80;64.50;;;;;;7405251;19;19918;-66
2022/12/21 03:42:10;;;;;;;1.70;0.32;;;17.80;64.50;;;;;;7405431;19;20346;-65
2022/12/21 03:44:44;;;;;;;2.00;1.08;;;17.80;64.60;;;;;;7406304;19;19935;-65
2022/12/21 03:47:18;;;;;;;1.73;1.02;;;17.80;64.50;;;;;;7405103;19;19915;-65
2022/12/21 03:49:54;;;;;;;1.15;0.20;;;17.80;64.50;;;;;;7404651;19;19915;-65
2022/12/21 03:52:27;;;;;;;2.00;1.10;;;17.80;64.50;;;;;;7405166;19;19944;-66
2022/12/21 03:55:03;;;;;;;1.98;1.17;;;17.80;64.50;;;;;;7405460;19;20342;-66
2022/12/21 03:57:33;;;;;;;2.40;0.60;;;17.80;64.50;;;;;;7405144;19;19940;-65
2022/12/21 04:00:04;;;;;;;1.85;1.15;;;17.80;64.50;;;;;;7407505;19;19915;-65
2022/12/21 04:02:39;;;;;;;2.35;1.00;;;17.80;64.60;;;;;;7404642;19;20566;-65
2022/12/21 04:05:17;;;;;;;2.25;0.20;;;17.80;64.60;;;;;;7404453;19;19978;-65
2022/12/21 04:07:48;;;;;;;1.67;0.88;;;17.70;64.50;;;;;;7404822;19;20360;-65
2022/12/21 04:10:19;;;;;;;1.73;0.85;;;17.80;64.60;;;;;;7403129;19;19919;-65
2022/12/21 04:12:46;;;;;;;1.30;0.30;;;17.80;64.50;;;;;;7404624;19;20418;-66
2022/12/21 04:15:17;;;;;;;1.80;1.02;;;17.70;65.10;;;;;;7402843;19;19948;-66
2022/12/21 04:17:48;;;;;;;2.20;1.20;;;17.80;64.50;;;;;;7407248;19;19919;-65
2022/12/21 04:20:19;;;;;;;1.92;1.00;;;17.70;64.50;;;;;;7406807;19;19925;-65
2022/12/21 04:28:19;;;;;;;2.03;1.20;;;17.70;64.50;;;;;;7403934;19;19930;-65
2022/12/21 04:30:48;;;;;;;1.60;1.00;;;17.70;64.50;;;;;;7404002;19;19985;-65
2022/12/21 04:33:19;;;;;;;;;;;17.70;64.50;;;;;;7404508;19;19914;-65
2022/12/21 04:38:35;;;;;;;1.95;1.10;;;17.70;64.50;;;;;;7403709;19;19978;-65
2022/12/21 04:41:05;;;;;;;2.00;0.80;;;17.70;64.50;;;;;;7403861;19;19970;-64
2022/12/21 04:43:44;;;;;;;2.05;1.00;;;17.70;64.50;;;;;;7405498;19;19922;-66
2022/12/21 04:46:15;;;;;;;1.52;0.90;;;17.70;64.50;;;;;;7404428;19;19919;-64
2022/12/21 04:48:46;;;;;;;2.35;1.65;;;17.70;64.50;;;;;;7401423;19;20342;-65
2022/12/21 04:51:19;;;;;;;1.73;1.08;;;17.70;64.50;;;;;;7402766;19;20334;-65
2022/12/21 04:53:49;;;;;;;1.73;0.98;;;17.60;64.40;;;;;;7401690;19;19926;-65
2022/12/21 04:56:19;;;;;;;2.13;0.75;;;17.70;64.50;;;;;;7403285;19;20378;-65
2022/12/21 04:58:49;;;;;;;1.80;1.02;;;17.70;64.50;;;;;;7402917;19;19921;-65
2022/12/21 05:01:18;;;;;;;;;;;17.70;64.50;;;;;;7403672;19;19920;-63
2022/12/21 05:03:48;;;;;;;1.60;1.13;;;17.70;64.50;;;;;;7402374;19;19922;-63
2022/12/21 05:06:21;;;;;;;;;;;17.70;64.50;;;;;;7404936;19;19970;-64
2022/12/21 05:08:49;;;;;;;1.45;0.93;;;17.70;64.50;;;;;;7402026;19;19929;-63
2022/12/21 05:11:20;;;;;;;1.98;1.05;;;17.60;64.50;;;;;;7401949;19;19918;-64
2022/12/21 05:13:49;;;;;;;1.33;0.90;;;17.70;65.00;;;;;;7402322;19;20349;-63
2022/12/21 05:16:21;;;;;;;1.40;1.10;;;17.70;64.50;;;;;;7401970;19;19922;-62
2022/12/21 05:18:52;;;;;;;1.85;0.88;;;17.60;64.40;;;;;;7404890;19;20400;-63
2022/12/21 05:21:23;;;;;;;1.52;0.90;;;17.60;64.40;;;;;;7404564;19;20375;-63
2022/12/21 05:23:52;;;;;;;1.58;1.15;;;17.60;64.50;;;;;;7401158;19;19927;-63
2022/12/21 05:26:21;;;;;;;1.58;1.08;;;17.60;64.40;;;;;;7402976;19;19911;-63
2022/12/21 05:28:55;;;;;;;1.58;1.02;;;17.60;64.50;;;;;;7401869;19;19922;-63
2022/12/21 05:31:24;;;;;;;2.13;1.20;;;17.60;64.40;;;;;;7404198;19;19926;-63
2022/12/21 05:33:54;;;;;;;2.17;1.00;;;17.60;64.40;;;;;;7405211;19;19925;-63
2022/12/21 05:36:26;;;;;;;2.45;1.00;;;17.60;64.40;;;;;;7402876;19;19944;-63
2022/12/21 05:38:57;;;;;;;1.80;1.23;;;17.60;64.50;;;;;;7404962;19;20569;-63
2022/12/21 05:41:26;;;;;;;2.40;0.93;;;17.60;64.40;;;;;;7401633;19;19934;-63
2022/12/21 05:43:55;;;;;;;1.27;0.65;;;17.60;64.50;;;;;;7401305;19;19914;-64
2022/12/21 05:46:25;;;;;;;2.20;1.35;;;17.60;64.40;;;;;;7403581;19;19922;-64
2022/12/21 05:48:55;;;;;;;1.50;1.02;;;17.60;64.40;;;;;;7402052;19;20360;-65
2022/12/21 05:51:27;;;;;;;2.55;1.13;;;17.60;64.40;;;;;;7402738;19;19915;-65
2022/12/21 05:53:56;;;;;;;1.70;1.05;;;17.60;64.40;;;;;;7400551;19;20018;-65
2022/12/21 05:56:25;;;;;;;2.25;1.52;;;17.60;64.50;;;;;;7403004;19;19939;-65
2022/12/21 05:58:54;;;;;;;1.60;0.90;;;17.60;64.40;;;;;;7411042;19;19924;-65
2022/12/21 06:01:23;;;;;;;1.92;0.70;;;17.60;64.50;;;;;;7407524;19;20010;-66
2022/12/21 06:03:57;;;;;;;2.15;1.20;;;17.60;64.40;;;;;;7408189;19;19918;-65
2022/12/21 06:06:28;;;;;;;2.08;1.52;;;17.60;64.40;;;;;;7408070;19;19915;-65
2022/12/21 06:09:02;;;;;;;1.90;0.95;;;17.50;64.40;;;;;;7410629;19;19951;-65
2022/12/21 06:11:31;;;;;;;1.70;1.13;;;17.50;64.40;;;;;;7406106;19;20349;-65
2022/12/21 06:14:00;;;;;;;1.15;0.85;;;17.60;64.40;;;;;;7407168;19;19915;-66
2022/12/21 06:16:30;;;;;;;1.73;1.10;;;17.50;64.40;;;;;;7409395;19;19923;-65
2022/12/21 06:18:59;;;;;;;1.15;0.73;;;17.50;64.40;;;;;;7410448;19;19922;-65
2022/12/21 06:21:30;;;;;;;1.63;0.40;;;17.60;64.40;;;;;;7407050;19;20268;-65
2022/12/21 06:23:59;;;;;;;1.58;0.90;;;17.50;64.40;;;;;;7405076;19;19987;-66
2022/12/21 06:26:28;;;;;;;1.77;0.93;;;17.50;64.40;;;;;;7407071;19;19915;-65
2022/12/21 06:28:57;;;;;;;1.85;0.95;;;17.50;64.40;;;;;;7409705;19;19923;-64
2022/12/21 06:31:26;;;;;;;1.83;0.88;;;17.50;64.40;;;;;;7406996;19;19918;-65
2022/12/21 06:33:57;;;;;;;1.65;1.10;;;17.50;64.40;;;;;;7405212;19;19933;-66
2022/12/21 06:36:35;;;;;;;1.45;1.02;;;17.50;64.40;;;;;;7410931;19;19926;-64
2022/12/21 06:39:05;;;;;;;2.20;0.95;;;17.50;64.40;;;;;;7410376;19;19922;-65
2022/12/21 06:41:34;;;;;;;2.08;1.13;;;17.50;64.40;;;;;;7408024;19;19919;-65
2022/12/21 06:44:03;;;;;;;1.58;0.77;;;17.50;64.40;;;;;;7407946;19;19919;-65
2022/12/21 06:46:32;;;;;;;2.10;1.30;;;17.50;64.40;;;;;;7406426;19;19922;-65
2022/12/21 06:49:02;;;;;;;1.95;1.20;;;17.50;64.40;;;;;;7409560;19;19922;-65
2022/12/21 06:51:30;;;;;;;1.88;1.25;;;17.50;64.40;;;;;;7409641;19;20353;-66
2022/12/21 06:54:02;;;;;;;1.38;0.90;;;17.50;64.40;;;;;;7408092;19;19929;-65
2022/12/21 06:56:33;;;;;;;1.73;0.70;;;17.50;64.40;;;;;;7409515;19;19927;-65
2022/12/21 06:59:02;;;;;;;1.70;1.15;;;17.50;64.40;;;;;;7406373;19;19915;-65
2022/12/21 07:01:35;;;;;;;1.88;0.93;;;17.50;64.40;;;;;;7406193;19;19928;-65
2022/12/21 07:04:05;;;;;;;1.50;1.08;;;17.50;64.40;;;;;;7407535;19;19918;-65
2022/12/21 07:06:34;;;;;;;2.20;1.50;;;17.50;64.40;;;;;;7405481;19;19926;-65
2022/12/21 07:09:06;;;;;;;;;;;17.50;64.40;;;;;;7408351;19;19923;-74
2022/12/21 07:11:35;;;;;;;2.72;0.77;;;17.50;64.40;;;;;;7409146;19;19922;-72
2022/12/21 07:14:05;;;;;;;2.40;1.02;;;17.50;64.50;;;;;;7408262;19;19952;-72
2022/12/21 07:16:33;;;;;;;1.33;0.77;;;17.50;64.50;;;;;;7410366;19;19986;-73
2022/12/21 07:19:02;;;;;;;1.48;0.90;;;17.50;64.40;;;;;;7407185;19;19918;-75
2022/12/21 07:21:31;;;;;;;1.92;1.02;;;17.50;64.50;;;;;;7405898;19;19919;-73
2022/12/21 07:24:00;;;;;;;1.77;0.95;;;17.50;64.40;;;;;;7403970;19;19918;-67
2022/12/21 07:26:32;;;;;;;1.50;0.75;;;17.60;64.60;;;;;;7407613;19;19922;-67
2022/12/21 07:29:01;;;;;;;1.02;0.30;;;17.60;64.60;;;;;;7408974;19;19930;-66
2022/12/21 07:31:30;;;;;;;2.50;1.33;;;17.60;64.60;;;;;;7406154;19;19926;-66
2022/12/21 07:34:00;;;;;;;1.50;0.85;;;17.60;64.60;;;;;;7404515;19;19936;-66
2022/12/21 07:36:29;;;;;;;1.55;1.10;;;17.60;64.50;;;;;;7405181;19;19925;-66
2022/12/21 07:38:58;;;;;;;1.38;0.30;;;17.60;64.50;;;;;;7404702;19;20283;-66
2022/12/21 07:41:27;;;;;;;1.55;0.90;;;17.70;64.50;;;;;;7407657;19;19914;-66
2022/12/21 07:43:59;;;;;;;2.22;1.40;;;17.70;65.00;;;;;;7405330;19;19914;-66
2022/12/21 07:46:27;;;;;;;1.65;0.40;;;17.70;64.30;;;;;;7404926;19;19918;-66
2022/12/21 07:48:57;;;;;;;1.40;0.75;;;17.80;64.30;;;;;;7404365;19;19922;-66
2022/12/21 07:51:26;;;;;;;1.20;0.30;;;17.80;64.20;;;;;;7405098;19;20348;-66
2022/12/21 07:53:56;;;;;;;1.10;0.20;;;17.80;64.20;;;;;;7401962;19;19922;-66
2022/12/21 07:56:25;;;;;;;1.52;0.88;;;17.90;64.00;;;;;;7399169;19;19925;-66
2022/12/21 07:58:54;;;;;;;1.42;0.30;;;17.90;64.10;;;;;;7406163;19;20015;-66
2022/12/21 08:01:26;;;;;;;1.45;0.80;;;17.90;64.00;;;;;;7363593;19;19931;-65
2022/12/21 08:03:57;;;;;;;1.65;1.13;;;17.90;64.50;;;;;;7406475;19;19922;-66
2022/12/21 08:06:26;;;;;;;1.90;1.00;;;17.90;63.90;;;;;;7408178;19;19929;-66
2022/12/21 08:08:55;;;;;;;1.38;0.30;;;18.00;63.90;;;;;;7406234;19;19946;-66
2022/12/21 08:11:24;;;;;;;;;;;18.00;63.90;;;;;;7409098;19;19926;-66
2022/12/21 08:13:56;;;;;;;1.30;1.00;;;17.90;63.80;;;;;;7405574;19;19919;-65
2022/12/21 08:16:28;;;;;;;1.55;0.40;;;17.90;63.90;;;;;;7401385;19;19926;-66
2022/12/21 08:18:58;;;;;;;2.40;1.00;;;17.90;63.90;;;;;;7404133;19;19914;-67
2022/12/21 08:21:27;;;;;;;1.50;0.30;;;17.90;63.90;;;;;;7398552;19;19915;-66
2022/12/21 08:23:56;;;;;;;1.63;1.00;;;17.90;63.90;;;;;;7405269;19;19915;-66
2022/12/21 08:26:25;;;;;;;2.05;0.50;;;17.90;63.90;;;;;;7403021;19;19974;-67
2022/12/21 08:28:54;;;;;;;1.42;0.40;;;17.90;63.90;;;;;;7406517;19;19922;-65
2022/12/21 08:31:23;;;;;;;1.35;0.32;;;17.90;63.90;;;;;;7403730;19;19970;-65
2022/12/21 08:33:55;;;;;;;1.52;1.08;;;17.90;63.90;;;;;;7406440;19;19915;-65
2022/12/21 08:36:26;;;;;;;1.73;0.88;;;17.80;63.90;;;;;;7405239;19;19930;-65
2022/12/21 08:39:00;;;;;;;;;;;17.80;63.90;;;;;;7406249;19;19919;-66
2022/12/21 08:41:29;;;;;;;3.00;0.95;;;17.80;64.00;;;;;;7403251;19;19919;-66
2022/12/21 08:43:58;;;;;;;1.75;1.10;;;17.80;64.00;;;;;;7403437;19;19915;-65
2022/12/21 08:46:27;;;;;;;1.80;0.77;;;17.80;64.10;;;;;;7398814;19;19982;-66
2022/12/21 08:48:59;;;;;;;1.73;0.82;;;17.80;64.00;;;;;;7404640;19;19922;-66
2022/12/21 08:51:29;;;;;;;1.75;1.10;;;17.80;64.00;;;;;;7403354;19;19935;-65
2022/12/21 08:53:58;;;;;;;2.38;1.27;;;17.80;64.10;;;;;;7404201;19;19997;-66
2022/12/21 08:56:27;;;;;;;2.08;0.90;;;17.70;64.10;;;;;;7403809;19;20273;-66
2022/12/21 08:58:56;;;;;;;1.63;0.28;;;17.70;64.10;;;;;;7405711;19;19923;-66
2022/12/21 09:01:26;;;;;;;2.58;1.33;;;17.70;64.20;;;;;;7402823;19;19930;-66
2022/12/21 09:03:55;;;;;;;2.05;1.20;;;17.70;64.20;;;;;;7402099;19;19918;-67
2022/12/21 09:06:27;;;;;;;1.60;0.40;;;17.70;64.20;;;;;;7404501;19;19919;-66
2022/12/21 09:08:56;;;;;;;2.20;0.70;;;17.70;64.20;;;;;;7399055;19;19921;-66
2022/12/21 09:11:27;;;;;;;1.85;0.55;;;17.70;64.20;;;;;;7405936;19;20302;-66
2022/12/21 09:13:57;;;;;;;2.00;1.20;;;17.70;64.20;;;;;;7398045;19;19926;-66
2022/12/21 09:16:26;;;;;;;2.05;0.30;;;17.70;64.20;;;;;;7397934;19;19940;-66
2022/12/21 09:18:59;;;;;;;1.98;0.50;;;17.70;64.20;;;;;;7405408;19;19918;-66
2022/12/21 09:21:31;;;;;;;2.78;1.35;;;17.70;64.20;;;;;;7404453;19;19926;-66
2022/12/21 09:24:04;;;;;;;1.85;0.88;;;17.70;64.10;;;;;;7401242;19;20295;-66
2022/12/21 09:26:33;;;;;;;1.40;0.30;;;17.70;64.20;;;;;;7402722;19;20406;-65
2022/12/21 09:29:03;;;;;;;3.42;1.33;;;17.70;64.10;;;;;;7400759;19;19919;-66
2022/12/21 09:31:32;;;;;;;2.58;1.20;;;17.70;64.20;;;;;;7405295;19;19986;-66
2022/12/21 09:34:12;;;;;;;1.98;1.38;;;17.70;64.20;;;;;;7410253;19;19978;-66
2022/12/21 09:36:43;;;;;;;1.83;1.08;;;17.70;64.20;;;;;;7406903;19;20354;-66
2022/12/21 09:39:12;;;;;;;2.00;0.40;;;17.70;64.20;;;;;;7406368;19;19984;-66
2022/12/21 09:42:08;;;;;;;1.77;0.40;;;17.70;64.20;;;;;;7408519;19;20256;-66
2022/12/21 09:44:58;;;;;;;2.22;1.15;;;17.60;64.10;;;;;;7407971;19;19983;-66
2022/12/21 09:47:37;;;;;;;2.20;1.25;;;17.60;64.10;;;;;;7408616;19;19918;-65
2022/12/21 09:50:12;;;;;;;1.45;0.50;;;17.60;64.10;;;;;;7408055;19;19948;-66
2022/12/21 09:52:51;;;;;;;2.28;1.10;;;17.60;64.10;;;;;;7406259;19;19918;-65
2022/12/21 09:55:25;;;;;;;2.78;0.93;;;17.60;64.20;;;;;;7407288;19;19924;-66
2022/12/21 09:57:57;;;;;;;2.25;0.68;;;17.60;64.40;;;;;;7409819;19;19915;-65
2022/12/21 10:00:28;;;;;;;2.30;1.10;;;17.60;64.10;;;;;;7407942;19;19986;-66
2022/12/21 10:03:16;;;;;;;1.60;1.02;;;17.70;64.20;;;;;;7408571;19;20337;-66
2022/12/21 10:06:07;;;;;;;2.15;0.35;;;17.60;64.10;;;;;;7405739;19;19914;-65
2022/12/21 10:08:52;;;;;;;1.95;1.13;;;17.60;64.20;;;;;;7409822;19;19953;-66
2022/12/21 10:11:32;;;;;;;1.98;1.20;;;17.60;64.10;;;;;;7410233;19;19923;-65
2022/12/21 10:14:09;;;;;;;2.47;0.60;;;17.60;64.10;;;;;;7407161;19;19915;-66
2022/12/21 10:16:47;;;;;;;2.83;1.42;;;17.60;64.10;;;;;;7405694;19;19918;-66
2022/12/21 10:19:31;;;;;;;3.88;1.50;;;17.60;64.10;;;;;;7408064;19;19982;-65
2022/12/21 10:22:09;;;;;;;1.75;1.10;;;17.60;64.20;;;;;;7407231;19;19911;-65
2022/12/21 10:24:48;;;;;;;2.25;1.15;;;17.50;64.10;;;;;;7406720;19;19921;-66
2022/12/21 10:27:24;;;;;;;2.78;0.50;;;17.60;64.20;;;;;;7407880;19;19923;-65
2022/12/21 10:29:57;;;;;;;2.35;1.52;;;17.60;64.20;;;;;;7406938;19;19918;-66
2022/12/21 10:32:31;;;;;;;2.92;2.03;;;17.60;64.20;;;;;;7404866;19;19974;-66
2022/12/21 10:35:17;;;;;;;2.25;1.30;;;17.60;64.20;;;;;;7407073;19;19927;-66
2022/12/21 10:37:47;;;;;;;2.97;0.57;;;17.60;64.20;;;;;;7406917;19;20244;-66
2022/12/21 10:40:19;;;;;;;2.92;1.40;;;17.60;64.30;;;;;;7404828;19;19919;-65
2022/12/21 10:42:52;;;;;;;3.15;1.42;;;17.60;64.30;;;;;;7406167;19;19930;-65
2022/12/21 10:45:24;;;;;;;2.40;1.00;;;17.60;64.20;;;;;;7405921;19;19982;-65
2022/12/21 10:47:53;;;;;;;2.60;1.50;;;17.60;64.20;;;;;;7406890;19;19978;-65
2022/12/21 10:50:26;;;;;;;2.85;1.70;;;17.60;64.20;;;;;;7406454;19;19914;-66
2022/12/21 10:52:58;;;;;;;2.58;1.67;;;17.60;64.20;;;;;;7404978;19;19915;-67
2022/12/21 10:55:34;;;;;;;1.90;0.40;;;17.60;64.20;;;;;;7406902;19;19914;-65
2022/12/21 10:58:19;;;;;;;2.58;1.33;;;17.60;64.30;;;;;;7411758;19;19926;-66
2022/12/21 11:00:58;;;;;;;3.00;1.35;;;17.60;64.30;;;;;;6366657;19;15037440;-66
2022/12/21 11:03:30;;;;;;;2.20;1.20;;;17.60;64.30;;;;;;7410655;19;19914;-65
2022/12/21 11:05:59;;;;;;;2.38;1.23;;;17.60;64.10;;;;;;7407515;19;19927;-66
2022/12/21 11:08:30;;;;;;;;;;;17.70;64.10;;;;;;7399483;19;19927;-66
2022/12/21 11:11:03;;;;;;;3.30;1.33;;;17.80;64.30;;;;;;7396516;19;19910;-66
2022/12/21 11:13:34;;;;;;;2.13;1.10;;;17.90;63.90;;;;;;7405073;19;19950;-66
2022/12/21 11:16:07;;;;;;;2.70;1.05;;;18.00;63.80;;;;;;7407323;19;19945;-67
2022/12/21 11:18:43;;;;;;;3.25;2.03;;;18.10;63.60;;;;;;7406154;19;19933;-67
2022/12/21 11:21:26;;;;;;;2.17;1.38;;;18.20;63.40;;;;;;7408502;19;19936;-67
2022/12/21 11:24:00;;;;;;;2.05;1.05;;;18.30;63.30;;;;;;7402496;19;19915;-67
2022/12/21 11:26:35;;;;;;;3.50;1.58;;;18.50;63.20;;;;;;7407569;19;19931;-67
2022/12/21 11:29:08;;;;;;;2.38;1.05;;;18.60;63.00;;;;;;7405703;19;19922;-65
2022/12/21 11:31:38;;;;;;;2.25;1.17;;;18.70;62.90;;;;;;7408556;19;19926;-84
2022/12/21 11:34:07;;;;;;;;;;;18.80;62.80;;;;;;7407223;19;20643;-82
2022/12/21 11:36:57;;;;;;;2.80;1.58;;;18.80;63.10;;;;;;7316928;19;19948;-69
2022/12/21 11:39:26;;;;;;;2.20;1.38;;;19.00;62.70;;;;;;7404581;19;19922;-70
2022/12/21 11:41:58;;;;;;;2.90;1.35;;;19.00;62.90;;;;;;7408837;19;19926;-70
2022/12/21 11:44:32;;;;;;;2.78;1.42;;;19.10;62.30;;;;;;7404358;19;19953;-69
2022/12/21 11:47:25;;;;;;;2.53;1.20;;;19.20;62.20;;;;;;7407910;19;19926;-69
2022/12/21 11:50:20;;;;;;;2.60;1.27;;;19.30;62.20;;;;;;7405872;19;19943;-70
2022/12/21 11:53:09;;;;;;;3.08;1.83;;;19.30;62.10;;;;;;7404341;19;19915;-69
2022/12/21 11:55:52;;;;;;;3.85;1.75;;;19.40;62.10;;;;;;7404840;19;19941;-68
2022/12/21 11:58:28;;;;;;;;;;;19.50;62.00;;;;;;7400633;19;19948;-66
2022/12/21 12:01:07;;;;;;;1.73;1.25;;;19.50;62.20;;;;;;7402071;19;19930;-66
2022/12/21 12:03:57;;;;;;;2.47;1.02;;;19.60;62.00;;;;;;7402309;19;19919;-66
2022/12/21 12:06:53;;;;;;;2.33;1.33;;;19.70;61.90;;;;;;7402553;19;19918;-65
2022/12/21 12:09:39;;;;;;;4.22;1.23;;;19.70;61.90;;;;;;7405352;19;19935;-66
2022/12/21 12:12:15;;;;;;;3.17;1.48;;;19.70;61.70;;;;;;7407210;19;19915;-66
2022/12/21 12:15:02;;;;;;;3.42;0.70;;;19.80;61.70;;;;;;7404858;19;20292;-66
2022/12/21 12:17:48;;;;;;;2.65;1.42;;;19.80;61.70;;;;;;7403567;19;19937;-66
2022/12/21 12:20:47;;;;;;;3.28;1.33;;;19.90;61.70;;;;;;7405152;19;19937;-66
2022/12/21 12:23:25;;;;;;;2.38;1.35;;;19.90;61.60;;;;;;7404850;19;19983;-67
2022/12/21 12:26:08;;;;;;;2.53;1.42;;;20.00;61.60;;;;;;7408301;19;19918;-66
2022/12/21 12:29:05;;;;;;;2.53;1.48;;;20.00;61.60;;;;;;7406486;19;19922;-66
2022/12/21 12:31:55;;;;;;;2.03;0.88;;;20.00;61.60;;;;;;7402797;19;19914;-66
2022/12/21 12:34:51;;;;;;;2.30;1.48;;;20.10;61.60;;;;;;7405238;19;19929;-66
2022/12/21 12:37:31;;;;;;;1.33;0.40;;;20.10;61.50;;;;;;7402559;19;20261;-66
2022/12/21 12:40:12;;;;;;;3.13;1.65;;;20.10;61.50;;;;;;7397655;19;19922;-66
2022/12/21 12:42:45;;;;;;;2.40;1.25;;;20.20;62.20;;;;;;7406268;19;19918;-66
2022/12/21 12:45:24;;;;;;;2.33;1.05;;;20.20;61.60;;;;;;7404580;19;20325;-66
2022/12/21 12:48:07;;;;;;;1.92;0.50;;;20.20;61.70;;;;;;7402792;19;20263;-66
2022/12/21 12:50:43;;;;;;;2.92;1.23;;;20.20;61.70;;;;;;7403123;19;19921;-66
2022/12/21 12:53:26;;;;;;;2.22;1.30;;;20.20;61.70;;;;;;7403158;19;19985;-66
2022/12/21 12:56:02;;;;;;;2.15;1.20;;;20.20;61.70;;;;;;7394646;19;19978;-66
2022/12/21 12:58:39;;;;;;;1.92;1.08;;;20.20;61.80;;;;;;7406400;19;19935;-66
2022/12/21 13:01:16;;;;;;;1.95;1.00;;;20.20;61.80;;;;;;7403421;19;19941;-66
2022/12/21 13:04:14;;;;;;;3.83;1.58;;;20.20;61.80;;;;;;7401783;19;19922;-67
2022/12/21 13:06:54;;;;;;;3.33;1.48;;;20.20;61.80;;;;;;7405133;19;19922;-66
2022/12/21 13:09:36;;;;;;;2.67;1.40;;;20.20;61.90;;;;;;7403118;19;19933;-65
2022/12/21 13:12:11;;;;;;;3.38;1.35;;;20.10;61.90;;;;;;7396897;19;19926;-66
2022/12/21 13:14:48;;;;;;;2.63;1.55;;;20.20;62.00;;;;;;7403038;19;20342;-66
2022/12/21 13:17:28;;;;;;;2.25;1.17;;;20.20;62.00;;;;;;7401270;19;19919;-66
2022/12/21 13:20:03;;;;;;;2.70;1.27;;;20.10;62.10;;;;;;7404867;19;20372;-66
2022/12/21 13:22:37;;;;;;;2.35;1.63;;;20.10;62.10;;;;;;7402223;19;19929;-65
2022/12/21 13:25:16;;;;;;;3.15;1.70;;;20.10;62.10;;;;;;7400171;19;19922;-65
2022/12/21 13:27:47;;;;;;;2.78;1.45;;;20.10;62.10;;;;;;7396241;19;20322;-65
2022/12/21 13:30:24;;;;;;;2.47;1.50;;;20.10;62.10;;;;;;7383164;19;19922;-66
2022/12/21 13:32:57;;;;;;;3.45;1.67;;;20.10;62.20;;;;;;7404661;19;19922;-66